createdAt,value
2018-08-23T00:00:18.379Z,101318.41
2018-08-23T00:02:55.292Z,101315.55
2018-08-23T00:05:31.641Z,101321.41
2018-08-23T00:08:15.091Z,101302.63
2018-08-23T00:10:52.118Z,101306.16
2018-08-23T00:13:28.827Z,101300.48
2018-08-23T00:16:04.754Z,101304.16
2018-08-23T00:18:41.107Z,101311.20
2018-08-23T00:21:21.573Z,101309.21
2018-08-23T00:26:08.643Z,101303.69
2018-08-23T00:29:58.601Z,101309.08
2018-08-23T00:32:35.105Z,101300.35
2018-08-23T00:35:14.274Z,101296.33
2018-08-23T00:37:50.642Z,101302.19
2018-08-23T00:40:26.398Z,101301.34
2018-08-23T00:43:08.089Z,101307.87
2018-08-23T00:45:44.638Z,101303.16
2018-08-23T00:48:20.289Z,101301.81
2018-08-23T00:51:02.070Z,101305.69
2018-08-23T00:53:39.133Z,101297.95
2018-08-23T00:56:21.631Z,101299.29
2018-08-23T00:59:01.442Z,101300.63
2018-08-23T01:01:37.507Z,101310.02
2018-08-23T01:04:13.626Z,101315.73
2018-08-23T01:06:49.487Z,101308.52
2018-08-23T01:09:26.662Z,101307.49
2018-08-23T01:12:02.331Z,101306.99
2018-08-23T01:14:38.116Z,101307.84
2018-08-23T01:17:21.609Z,101302.97
2018-08-23T01:20:01.666Z,101297.61
2018-08-23T01:22:37.305Z,101315.05
2018-08-23T01:25:13.321Z,101307.99
2018-08-23T01:27:49.651Z,101309.33
2018-08-23T01:30:26.128Z,101309.86
2018-08-23T01:33:01.857Z,101312.86
2018-08-23T01:35:37.626Z,101319.26
2018-08-23T01:38:14.045Z,101303.31
2018-08-23T01:40:49.689Z,101308.52
2018-08-23T01:43:26.834Z,101306.84
2018-08-23T01:47:18.854Z,101315.73
2018-08-23T01:51:55.500Z,101305.99
2018-08-23T01:54:31.321Z,101310.36
2018-08-23T01:57:07.487Z,101305.50
2018-08-23T01:59:43.367Z,101309.02
2018-08-23T02:02:21.155Z,101305.50
2018-08-23T02:04:56.949Z,101303.66
2018-08-23T02:07:32.939Z,101311.36
2018-08-23T02:10:08.845Z,101321.59
2018-08-23T02:12:47.533Z,101314.58
2018-08-23T02:15:23.670Z,101318.91
2018-08-23T02:18:00.514Z,101315.91
2018-08-23T02:20:36.428Z,101319.41
2018-08-23T02:23:12.302Z,101319.41
2018-08-23T02:25:48.314Z,101319.10
2018-08-23T02:28:23.871Z,101323.62
2018-08-23T02:31:00.010Z,101327.65
2018-08-23T02:33:35.904Z,101324.13
2018-08-23T02:39:11.686Z,101328.04
2018-08-23T02:41:48.357Z,101332.43
2018-08-23T02:44:25.877Z,101329.11
2018-08-23T02:47:01.544Z,101331.95
2018-08-23T02:49:37.096Z,101334.50
2018-08-23T02:52:12.927Z,101341.86
2018-08-23T02:54:48.679Z,101343.37
2018-08-23T02:57:24.318Z,101349.70
2018-08-23T02:59:59.685Z,101350.36
2018-08-23T03:04:19.077Z,101354.05
2018-08-23T03:07:04.704Z,101352.52
2018-08-23T03:09:43.383Z,101347.41
2018-08-23T03:12:21.083Z,101353.91
2018-08-23T03:14:57.044Z,101359.61
2018-08-23T03:17:36.074Z,101362.61
2018-08-23T03:21:30.473Z,101363.44
2018-08-23T03:24:06.885Z,101362.62
2018-08-23T03:26:43.312Z,101372.97
2018-08-23T03:29:18.904Z,101373.98
2018-08-23T03:31:54.513Z,101369.29
2018-08-23T03:34:30.498Z,101369.95
2018-08-23T03:37:06.368Z,101383.02
2018-08-23T03:39:42.710Z,101390.04
2018-08-23T03:42:18.706Z,101389.05
2018-08-23T03:44:57.432Z,101393.37
2018-08-23T03:47:41.045Z,101400.43
2018-08-23T03:50:16.918Z,101403.77
2018-08-23T03:52:54.729Z,101405.11
2018-08-23T03:56:35.099Z,101411.15
2018-08-23T03:59:10.936Z,101415.66
2018-08-23T04:01:46.433Z,101414.69
2018-08-23T04:04:22.321Z,101419.03
2018-08-23T04:06:58.062Z,101425.58
2018-08-23T04:09:33.919Z,101434.96
2018-08-23T04:12:11.041Z,101433.94
2018-08-23T04:14:47.033Z,101439.64
2018-08-23T04:17:22.684Z,101438.80
2018-08-23T04:19:58.709Z,101438.31
2018-08-23T04:22:34.129Z,101447.69
2018-08-23T04:25:10.282Z,101453.71
2018-08-23T04:27:46.056Z,101458.73
2018-08-23T04:30:22.153Z,101469.45
2018-08-23T04:32:58.062Z,101465.77
2018-08-23T04:35:33.988Z,101467.12
2018-08-23T04:38:09.676Z,101468.11
2018-08-23T04:41:37.055Z,101467.44
2018-08-23T04:44:15.009Z,101477.17
2018-08-23T04:46:50.734Z,101481.19
2018-08-23T04:52:17.748Z,101487.87
2018-08-23T04:54:53.591Z,101493.93
2018-08-23T04:57:29.527Z,101494.25
2018-08-23T05:00:05.596Z,101497.10
2018-08-23T05:02:41.512Z,101491.25
2018-08-23T05:05:17.904Z,101491.75
2018-08-23T05:07:53.725Z,101495.91
2018-08-23T05:10:29.337Z,101496.05
2018-08-23T05:13:04.918Z,101503.14
2018-08-23T05:15:40.706Z,101492.88
2018-08-23T05:18:16.219Z,101496.44
2018-08-23T05:20:51.945Z,101500.78
2018-08-23T05:23:29.150Z,101495.41
2018-08-23T05:26:10.490Z,101493.58
2018-08-23T05:28:52.069Z,101486.88
2018-08-23T05:31:28.113Z,101488.22
2018-08-23T05:34:10.319Z,101489.91
2018-08-23T05:36:45.987Z,101495.27
2018-08-23T05:39:22.075Z,101493.09
2018-08-23T05:41:58.155Z,101489.06
2018-08-23T05:45:59.944Z,101481.81
2018-08-23T05:48:35.741Z,101490.05
2018-08-23T05:51:15.722Z,101491.89
2018-08-23T05:53:54.385Z,101494.57
2018-08-23T05:56:30.768Z,101493.38
2018-08-23T05:59:14.935Z,101495.91
2018-08-23T06:01:51.872Z,101495.56
2018-08-23T06:04:42.088Z,101496.91
2018-08-23T06:07:18.463Z,101496.55
2018-08-23T06:09:54.990Z,101489.85
2018-08-23T06:12:37.427Z,101491.19
2018-08-23T06:17:59.930Z,101498.73
2018-08-23T06:20:36.091Z,101499.58
2018-08-23T06:23:11.993Z,101496.05
2018-08-23T06:25:48.180Z,101498.24
2018-08-23T06:28:28.242Z,101498.59
2018-08-23T06:31:05.280Z,101494.57
2018-08-23T06:33:45.949Z,101494.08
2018-08-23T06:36:22.766Z,101493.93
2018-08-23T06:39:04.115Z,101497.10
2018-08-23T06:41:40.717Z,101495.27
2018-08-23T06:44:16.952Z,101499.11
2018-08-23T06:46:53.753Z,101497.92
2018-08-23T06:49:29.767Z,101502.41
2018-08-23T06:52:19.518Z,101509.45
2018-08-23T06:54:55.765Z,101501.77
2018-08-23T06:57:36.221Z,101505.09
2018-08-23T07:00:12.757Z,101517.00
2018-08-23T07:02:51.774Z,101516.70
2018-08-23T07:05:28.254Z,101513.84
2018-08-23T07:08:04.736Z,101517.17
2018-08-23T07:10:40.890Z,101514.84
2018-08-23T07:13:16.929Z,101515.67
2018-08-23T07:15:57.145Z,101518.69
2018-08-23T07:18:34.806Z,101517.69
2018-08-23T07:21:11.153Z,101515.98
2018-08-23T07:23:47.013Z,101516.50
2018-08-23T07:26:23.012Z,101517.48
2018-08-23T07:28:58.956Z,101518.14
2018-08-23T07:31:35.973Z,101518.66
2018-08-23T07:34:11.956Z,101514.45
2018-08-23T07:36:47.899Z,101522.16
2018-08-23T07:39:24.044Z,101517.50
2018-08-23T07:41:59.998Z,101521.83
2018-08-23T07:44:36.162Z,101520.84
2018-08-23T07:47:12.795Z,101520.16
2018-08-23T07:49:48.822Z,101521.01
2018-08-23T07:52:24.961Z,101526.87
2018-08-23T07:55:02.145Z,101525.70
2018-08-23T07:57:39.290Z,101525.20
2018-08-23T08:00:41.233Z,101526.36
2018-08-23T08:03:17.979Z,101525.33
2018-08-23T08:05:54.254Z,101522.65
2018-08-23T08:08:30.635Z,101524.34
2018-08-23T08:11:07.184Z,101522.31
2018-08-23T08:13:43.646Z,101528.03
2018-08-23T08:16:22.797Z,101525.34
2018-08-23T08:19:47.433Z,101523.98
2018-08-23T08:22:24.154Z,101529.02
2018-08-23T08:25:58.766Z,101519.28
2018-08-23T08:28:34.804Z,101520.47
2018-08-23T08:31:11.561Z,101514.09
2018-08-23T08:33:47.819Z,101517.63
2018-08-23T08:36:28.622Z,101514.59
2018-08-23T08:39:06.110Z,101516.28
2018-08-23T08:41:42.557Z,101519.81
2018-08-23T08:44:18.999Z,101521.97
2018-08-23T08:46:55.805Z,101520.97
2018-08-23T08:49:35.981Z,101517.94
2018-08-23T08:52:12.198Z,101510.23
2018-08-23T08:54:48.630Z,101505.87
2018-08-23T08:57:29.263Z,101507.39
2018-08-23T09:00:05.042Z,101509.08
2018-08-23T09:02:41.181Z,101512.92
2018-08-23T09:05:17.702Z,101508.05
2018-08-23T09:07:53.813Z,101501.69
2018-08-23T09:10:29.718Z,101491.95
2018-08-23T09:13:06.389Z,101490.46
2018-08-23T09:15:42.486Z,101486.94
2018-08-23T09:18:19.006Z,101490.46
2018-08-23T09:20:57.806Z,101485.41
2018-08-23T09:23:34.317Z,101486.56
2018-08-23T09:26:09.759Z,101477.52
2018-08-23T09:28:45.831Z,101481.73
2018-08-23T09:31:22.156Z,101479.20
2018-08-23T09:33:58.489Z,101481.06
2018-08-23T09:36:34.428Z,101474.86
2018-08-23T09:39:13.236Z,101472.02
2018-08-23T09:41:49.377Z,101472.51
2018-08-23T09:44:25.720Z,101475.88
2018-08-23T09:47:05.549Z,101479.22
2018-08-23T09:49:41.859Z,101479.72
2018-08-23T09:52:18.575Z,101480.74
2018-08-23T09:54:54.943Z,101478.91
2018-08-23T09:57:30.865Z,101478.55
2018-08-23T10:00:07.454Z,101476.72
2018-08-23T10:02:48.180Z,101476.72
2018-08-23T10:05:28.388Z,101474.53
2018-08-23T10:08:08.513Z,101476.38
2018-08-23T10:10:48.384Z,101468.67
2018-08-23T10:13:28.592Z,101468.32
2018-08-23T10:16:08.391Z,101470.51
2018-08-23T10:18:48.484Z,101461.96
2018-08-23T10:21:28.854Z,101461.61
2018-08-23T10:24:19.060Z,101463.98
2018-08-23T10:26:56.190Z,101461.30
2018-08-23T10:29:32.468Z,101456.61
2018-08-23T10:32:08.535Z,101468.16
2018-08-23T10:34:45.073Z,101468.34
2018-08-23T10:37:21.083Z,101471.02
2018-08-23T10:39:57.575Z,101470.53
2018-08-23T10:42:33.913Z,101472.37
2018-08-23T10:45:10.918Z,101473.52
2018-08-23T10:47:51.053Z,101464.66
2018-08-23T10:50:27.352Z,101469.19
2018-08-23T10:53:03.244Z,101467.34
2018-08-23T10:55:39.350Z,101463.32
2018-08-23T10:58:15.678Z,101461.14
2018-08-23T11:00:51.933Z,101464.66
2018-08-23T11:03:28.256Z,101461.98
2018-08-23T11:06:04.005Z,101464.31
2018-08-23T11:08:41.079Z,101459.63
2018-08-23T11:11:21.435Z,101462.50
2018-08-23T11:13:57.826Z,101459.97
2018-08-23T11:16:38.054Z,101460.96
2018-08-23T11:19:17.947Z,101460.81
2018-08-23T11:21:54.457Z,101459.97
2018-08-23T11:24:30.529Z,101460.31
2018-08-23T11:27:07.264Z,101465.33
2018-08-23T11:29:43.496Z,101462.30
2018-08-23T11:32:20.060Z,101466.83
2018-08-23T11:34:56.105Z,101467.50
2018-08-23T11:37:32.265Z,101464.82
2018-08-23T11:40:08.735Z,101465.98
2018-08-23T11:42:44.835Z,101467.00
2018-08-23T11:45:21.137Z,101464.82
2018-08-23T11:47:57.328Z,101464.82
2018-08-23T11:50:34.051Z,101457.93
2018-08-23T11:53:10.166Z,101454.09
2018-08-23T11:55:46.692Z,101457.93
2018-08-23T11:58:22.888Z,101457.62
2018-08-23T12:01:03.333Z,101455.93
2018-08-23T12:03:39.276Z,101453.91
2018-08-23T12:06:17.069Z,101455.25
2018-08-23T12:08:53.299Z,101449.39
2018-08-23T12:11:30.118Z,101447.38
2018-08-23T12:14:06.999Z,101448.73
2018-08-23T12:16:43.333Z,101448.38
2018-08-23T12:19:19.801Z,101444.88
2018-08-23T12:21:56.018Z,101448.56
2018-08-23T12:24:32.512Z,101447.22
2018-08-23T12:27:08.792Z,101449.41
2018-08-23T12:29:45.146Z,101445.38
2018-08-23T12:32:24.070Z,101449.91
2018-08-23T12:35:00.572Z,101452.58
2018-08-23T12:37:41.053Z,101455.61
2018-08-23T12:40:21.121Z,101459.66
2018-08-23T12:42:57.599Z,101459.66
2018-08-23T12:45:34.083Z,101457.97
2018-08-23T12:48:10.713Z,101457.63
2018-08-23T12:50:47.112Z,101455.63
2018-08-23T12:53:23.303Z,101452.61
2018-08-23T12:55:59.718Z,101456.63
2018-08-23T12:58:36.125Z,101460.30
2018-08-23T13:01:12.303Z,101459.49
2018-08-23T13:03:48.502Z,101460.48
2018-08-23T13:06:24.971Z,101462.01
2018-08-23T13:09:01.608Z,101472.39
2018-08-23T13:11:38.002Z,101469.39
2018-08-23T13:14:14.582Z,101477.09
2018-08-23T13:16:51.159Z,101476.43
2018-08-23T13:19:27.331Z,101479.95
2018-08-23T13:22:05.454Z,101480.14
2018-08-23T13:24:45.856Z,101484.16
2018-08-23T13:27:22.075Z,101485.32
2018-08-23T13:29:58.640Z,101493.86
2018-08-23T13:32:35.113Z,101496.89
2018-08-23T13:35:11.514Z,101494.20
2018-08-23T13:37:48.136Z,101497.20
2018-08-23T13:40:24.565Z,101498.40
2018-08-23T13:43:00.915Z,101509.94
2018-08-23T13:45:37.312Z,101513.80
2018-08-23T13:48:13.361Z,101516.16
2018-08-23T13:50:49.336Z,101515.00
2018-08-23T13:53:25.500Z,101516.84
2018-08-23T13:56:01.971Z,101521.85
2018-08-23T13:58:38.257Z,101525.37
2018-08-23T14:01:15.159Z,101527.72
2018-08-23T14:03:51.417Z,101528.24
2018-08-23T14:06:28.152Z,101542.46
2018-08-23T14:09:05.509Z,101542.15
2018-08-23T14:11:41.768Z,101548.36
2018-08-23T14:14:18.141Z,101552.88
2018-08-23T14:16:54.052Z,101556.05
2018-08-23T14:19:30.797Z,101555.55
2018-08-23T14:22:06.912Z,101562.58
2018-08-23T14:24:43.033Z,101566.10
2018-08-23T14:27:19.048Z,101566.10
2018-08-23T14:29:56.033Z,101561.41
2018-08-23T14:32:32.182Z,101565.13
2018-08-23T14:35:08.269Z,101565.94
2018-08-23T14:37:44.330Z,101564.28
2018-08-23T14:40:21.694Z,101567.80
2018-08-23T14:42:57.945Z,101572.14
2018-08-23T14:45:35.496Z,101571.30
2018-08-23T14:48:20.725Z,101573.48
2018-08-23T14:50:57.343Z,101572.14
2018-08-23T14:53:33.781Z,101569.46
2018-08-23T14:56:14.149Z,101567.28
2018-08-23T14:58:50.334Z,101567.80
2018-08-23T15:01:27.151Z,101575.84
2018-08-23T15:04:03.481Z,101570.98
2018-08-23T15:06:39.989Z,101571.97
2018-08-23T15:09:16.269Z,101570.31
2018-08-23T15:11:52.365Z,101568.63
2018-08-23T15:14:28.570Z,101576.17
2018-08-23T15:17:04.588Z,101572.33
2018-08-23T15:19:41.285Z,101581.71
2018-08-23T15:22:17.164Z,101578.01
2018-08-23T15:24:53.542Z,101578.01
2018-08-23T15:27:33.206Z,101579.20
2018-08-23T15:30:09.174Z,101578.01
2018-08-23T15:32:45.223Z,101581.04
2018-08-23T15:35:21.168Z,101576.67
2018-08-23T15:37:57.394Z,101580.52
2018-08-23T15:40:33.448Z,101575.66
2018-08-23T15:43:09.940Z,101587.05
2018-08-23T15:45:46.523Z,101584.55
2018-08-23T15:48:23.195Z,101583.21
2018-08-23T15:51:00.157Z,101584.73
2018-08-23T15:53:36.372Z,101583.53
2018-08-23T15:56:12.435Z,101589.42
2018-08-23T15:58:48.974Z,101584.20
2018-08-23T16:01:24.978Z,101594.27
2018-08-23T16:04:01.428Z,101596.95
2018-08-23T16:06:38.954Z,101593.09
2018-08-23T16:09:16.172Z,101594.94
2018-08-23T16:11:52.355Z,101599.45
2018-08-23T16:14:28.538Z,101600.79
2018-08-23T16:17:08.847Z,101592.92
2018-08-23T16:19:49.422Z,101594.94
2018-08-23T16:22:25.430Z,101597.44
2018-08-23T16:25:02.596Z,101596.10
2018-08-23T16:27:39.465Z,101601.14
2018-08-23T16:30:16.144Z,101603.65
2018-08-23T16:32:52.202Z,101602.31
2018-08-23T16:35:28.816Z,101602.31
2018-08-23T16:38:04.988Z,101600.47
2018-08-23T16:40:41.847Z,101594.94
2018-08-23T16:43:18.860Z,101605.66
2018-08-23T16:45:55.525Z,101596.77
2018-08-23T16:48:31.532Z,101600.30
2018-08-23T16:51:07.900Z,101602.98
2018-08-23T16:53:44.451Z,101602.13
2018-08-23T16:56:20.692Z,101604.50
2018-08-23T16:58:57.218Z,101605.30
2018-08-23T17:01:33.474Z,101607.84
2018-08-23T17:04:09.610Z,101604.81
2018-08-23T17:06:46.013Z,101604.81
2018-08-23T17:09:22.357Z,101604.50
2018-08-23T17:11:58.611Z,101604.98
2018-08-23T17:14:35.009Z,101600.97
2018-08-23T17:17:15.025Z,101605.83
2018-08-23T17:19:51.258Z,101608.52
2018-08-23T17:22:27.388Z,101623.58
2018-08-23T17:25:03.354Z,101613.70
2018-08-23T17:27:40.116Z,101609.68
2018-08-23T17:30:16.378Z,101610.84
2018-08-23T17:32:52.781Z,101608.83
2018-08-23T17:35:29.212Z,101607.49
2018-08-23T17:38:09.487Z,101611.86
2018-08-23T17:40:45.963Z,101611.02
2018-08-23T17:46:19.633Z,101615.04
2018-08-23T17:48:56.038Z,101614.20
2018-08-23T17:51:32.449Z,101616.55
2018-08-23T17:54:08.567Z,101616.06
2018-08-23T17:56:45.048Z,101617.23
2018-08-23T17:59:21.267Z,101613.20
2018-08-23T18:01:57.494Z,101607.00
2018-08-23T18:04:34.000Z,101612.70
2018-08-23T18:07:10.399Z,101606.33
2018-08-23T18:09:46.582Z,101607.00
2018-08-23T18:12:22.800Z,101606.84
2018-08-23T18:14:59.246Z,101601.31
2018-08-23T18:17:35.592Z,101598.95
2018-08-23T18:20:12.408Z,101591.44
2018-08-23T18:22:48.717Z,101597.11
2018-08-23T18:25:25.049Z,101592.77
2018-08-23T18:28:01.738Z,101598.80
2018-08-23T18:30:38.301Z,101591.08
2018-08-23T18:33:14.568Z,101592.42
2018-08-23T18:35:50.593Z,101593.27
2018-08-23T18:38:27.408Z,101594.11
2018-08-23T18:41:03.428Z,101589.91
2018-08-23T18:43:39.413Z,101591.60
2018-08-23T18:46:15.516Z,101584.90
2018-08-23T18:48:51.842Z,101590.08
2018-08-23T18:51:28.194Z,101586.06
2018-08-23T18:54:04.606Z,101584.05
2018-08-23T18:59:32.981Z,101582.04
2018-08-23T19:02:09.287Z,101578.86
2018-08-23T19:04:45.417Z,101576.35
2018-08-23T19:07:25.462Z,101573.84
2018-08-23T19:10:01.769Z,101579.88
2018-08-23T19:12:36.407Z,101579.69
2018-08-23T19:15:15.252Z,101566.59
2018-08-23T19:17:51.747Z,101574.50
2018-08-23T19:20:28.185Z,101567.30
2018-08-23T19:23:04.234Z,101560.25
2018-08-23T19:25:40.382Z,101556.21
2018-08-23T19:28:16.409Z,101564.11
2018-08-23T19:30:52.640Z,101557.72
2018-08-23T19:33:29.250Z,101552.36
2018-08-23T19:36:05.699Z,101546.50
2018-08-23T19:38:42.116Z,101548.50
2018-08-23T19:41:18.537Z,101556.55
2018-08-23T19:43:55.105Z,101546.13
2018-08-23T19:46:35.641Z,101549.17
2018-08-23T19:49:16.660Z,101550.02
2018-08-23T19:51:52.642Z,101548.67
2018-08-23T19:54:29.342Z,101549.34
2018-08-23T19:57:05.265Z,101543.13
2018-08-23T19:59:41.469Z,101545.63
2018-08-23T20:02:17.602Z,101542.45
2018-08-23T20:04:53.621Z,101544.80
2018-08-23T20:07:30.245Z,101540.09
2018-08-23T20:10:06.382Z,101542.78
2018-08-23T20:12:42.440Z,101543.48
2018-08-23T20:15:22.192Z,101543.48
2018-08-23T20:17:59.362Z,101535.43
2018-08-23T20:20:35.926Z,101537.78
2018-08-23T20:23:14.035Z,101533.41
2018-08-23T20:25:48.215Z,101531.39
2018-08-23T20:28:24.620Z,101529.20
2018-08-23T20:31:00.584Z,101533.39
2018-08-23T20:33:36.740Z,101524.35
2018-08-23T20:36:13.042Z,101518.48
2018-08-23T20:38:49.596Z,101517.15
2018-08-23T20:41:26.020Z,101517.28
2018-08-23T20:44:02.396Z,101519.96
2018-08-23T20:46:39.059Z,101516.78
2018-08-23T20:49:15.424Z,101516.28
2018-08-23T20:51:51.935Z,101514.77
2018-08-23T20:54:28.303Z,101508.05
2018-08-23T20:57:04.615Z,101510.23
2018-08-23T20:59:41.486Z,101506.56
2018-08-23T21:02:17.727Z,101514.08
2018-08-23T21:04:54.313Z,101512.73
2018-08-23T21:07:30.678Z,101506.20
2018-08-23T21:10:06.957Z,101502.67
2018-08-23T21:12:43.095Z,101496.30
2018-08-23T21:15:19.469Z,101498.49
2018-08-23T21:20:43.502Z,101488.75
2018-08-23T21:23:19.605Z,101491.10
2018-08-23T21:25:56.173Z,101476.86
2018-08-23T21:28:32.624Z,101486.39
2018-08-23T21:31:09.046Z,101480.84
2018-08-23T21:33:45.572Z,101476.31
2018-08-23T21:36:21.708Z,101468.27
2018-08-23T21:38:57.637Z,101474.79
2018-08-23T21:41:34.040Z,101464.05
2018-08-23T21:44:10.259Z,101460.37
2018-08-23T21:46:46.658Z,101459.34
2018-08-23T21:49:22.762Z,101452.14
2018-08-23T21:51:59.299Z,101453.83
2018-08-23T21:54:35.636Z,101449.61
2018-08-23T21:57:12.319Z,101444.59
2018-08-23T21:59:48.303Z,101439.53
2018-08-23T22:02:24.294Z,101438.69
2018-08-23T22:05:00.413Z,101428.30
2018-08-23T22:07:36.272Z,101428.30
2018-08-23T22:10:11.201Z,101423.24
2018-08-23T22:12:46.708Z,101420.06
2018-08-23T22:15:22.741Z,101420.41
2018-08-23T22:17:58.318Z,101422.91
2018-08-23T22:20:34.306Z,101412.52
2018-08-23T22:23:11.145Z,101410.33
2018-08-23T22:25:47.270Z,101403.42
2018-08-23T22:28:23.125Z,101402.42
2018-08-23T22:30:58.838Z,101394.03
2018-08-23T22:33:34.723Z,101395.53
2018-08-23T22:36:10.679Z,101394.84
2018-08-23T22:38:46.329Z,101394.84
2018-08-23T22:41:22.329Z,101395.69
2018-08-23T22:43:58.257Z,101387.94
2018-08-23T22:46:34.051Z,101384.76
2018-08-23T22:49:10.670Z,101383.23
2018-08-23T22:51:46.658Z,101374.67
2018-08-23T22:54:22.241Z,101370.15
2018-08-23T22:56:58.163Z,101371.83
2018-08-23T22:59:34.541Z,101374.33
2018-08-23T23:02:10.312Z,101378.36
2018-08-23T23:04:46.269Z,101371.45
2018-08-23T23:07:21.977Z,101368.77
2018-08-23T23:09:58.082Z,101367.77
2018-08-23T23:12:33.830Z,101367.27
2018-08-23T23:15:12.961Z,101364.90
2018-08-23T23:17:49.001Z,101365.08
2018-08-23T23:20:24.509Z,101359.72
2018-08-23T23:23:00.333Z,101366.73
2018-08-23T23:25:36.533Z,101360.37
2018-08-23T23:28:12.336Z,101361.71
2018-08-23T23:30:48.242Z,101361.21
2018-08-23T23:33:24.346Z,101355.34
2018-08-23T23:35:59.992Z,101360.71
2018-08-23T23:38:35.938Z,101359.67
2018-08-23T23:41:11.936Z,101357.84
2018-08-23T23:43:47.916Z,101362.17
2018-08-23T23:46:23.726Z,101346.59
2018-08-23T23:48:59.696Z,101348.90
2018-08-23T23:51:35.675Z,101353.77
2018-08-23T23:54:11.733Z,101353.92
2018-08-23T23:56:48.363Z,101351.73
2018-08-23T23:59:24.342Z,101348.55
